Time;durP1;ratioP1;P1;durP2;ratioP2;P2;SDS_P1;SDS_P2;PMS_P1;PMS_P2;Temp;Humidity;BMP_temperature;BMP_pressure;BME280_temperature;BME280_humidity;BME280_pressure;Samples;Min_cycle;Max_cycle;Signal;HPM_P1;HPM_P2
2022/10/09 00:03:57;;;;;;;45.58;38.33;;;22.20;59.90;;;;;;4870010;54;21024;-30
2022/10/09 00:09:00;;;;;;;43.78;37.80;;;22.10;59.80;;;;;;4812101;54;21035;-29
2022/10/09 00:14:02;;;;;;;42.45;37.78;;;22.20;59.90;;;;;;4811465;54;21517;-33
2022/10/09 00:19:03;;;;;;;43.28;37.92;;;22.10;59.80;;;;;;4860817;54;20996;-38
2022/10/09 00:24:07;;;;;;;40.20;35.72;;;22.10;59.80;;;;;;4810481;54;21015;-35
2022/10/09 00:29:08;;;;;;;41.47;35.78;;;22.10;59.90;;;;;;4795992;55;21060;-34
2022/10/09 00:34:09;;;;;;;41.33;36.42;;;22.10;59.80;;;;;;4819116;54;21091;-32
2022/10/09 00:39:10;;;;;;;42.28;36.63;;;22.10;59.80;;;;;;4824662;54;21524;-29
2022/10/09 00:44:46;;;;;;;41.28;36.85;;;22.10;59.80;;;;;;4835103;54;21094;-34
2022/10/09 00:49:48;;;;;;;43.35;38.25;;;22.10;59.90;;;;;;4800860;54;20999;-29
2022/10/09 00:54:50;;;;;;;41.88;37.50;;;22.10;59.80;;;;;;4825986;54;20992;-30
2022/10/09 00:59:51;;;;;;;41.10;36.60;;;22.10;59.80;;;;;;4795739;58;21075;-33
2022/10/09 01:04:52;;;;;;;42.65;36.55;;;22.10;59.90;;;;;;4799373;54;21055;-29
2022/10/09 01:10:31;;;;;;;41.47;36.95;;;22.10;59.80;;;;;;4816603;54;21087;-31
2022/10/09 01:17:08;;;;;;;41.78;37.25;;;22.10;59.80;;;;;;4810534;54;21066;-33
2022/10/09 01:22:26;;;;;;;42.33;37.63;;;22.10;59.80;;;;;;4812039;54;21032;-37
2022/10/09 01:27:29;;;;;;;40.80;36.30;;;22.10;59.80;;;;;;4795300;55;21580;-28
2022/10/09 01:32:39;;;;;;;40.25;35.90;;;22.10;59.70;;;;;;4812356;54;21028;-30
2022/10/09 01:37:45;;;;;;;41.58;36.25;;;22.10;59.80;;;;;;4836912;54;21038;-27
2022/10/09 01:42:46;;;;;;;43.45;37.28;;;22.10;59.80;;;;;;4829771;54;21087;-36
2022/10/09 01:47:46;;;;;;;41.17;35.75;;;22.10;60.40;;;;;;4796011;58;21023;-34
2022/10/09 01:52:59;;;;;;;41.42;36.92;;;22.10;59.80;;;;;;4812730;54;21032;-35
2022/10/09 01:59:04;;;;;;;40.30;36.00;;;22.10;59.80;;;;;;4820698;54;21091;-36
2022/10/09 02:04:09;;;;;;;40.53;36.13;;;22.10;59.70;;;;;;4794490;58;21040;-33
2022/10/09 02:09:14;;;;;;;39.33;35.20;;;22.10;59.70;;;;;;4795390;58;21122;-31
2022/10/09 02:14:15;;;;;;;41.20;36.60;;;22.10;59.80;;;;;;4858540;54;21104;-30
2022/10/09 02:19:22;;;;;;;42.60;36.47;;;22.10;59.70;;;;;;4833682;54;21075;-30
2022/10/09 02:24:23;;;;;;;;;;;22.10;59.80;;;;;;4800079;54;21020;-30
2022/10/09 02:29:24;;;;;;;40.17;35.17;;;22.10;59.70;;;;;;4806826;54;20051;-31
2022/10/09 02:34:25;;;;;;;41.58;36.63;;;22.10;59.80;;;;;;4849920;54;21071;-32
2022/10/09 02:39:26;;;;;;;39.22;34.97;;;22.10;59.70;;;;;;4795179;55;21011;-28
2022/10/09 02:44:27;;;;;;;40.90;35.90;;;22.10;59.70;;;;;;4820266;54;21023;-34
2022/10/09 02:49:28;;;;;;;41.08;35.45;;;22.10;59.70;;;;;;4823039;54;21565;-33
2022/10/09 02:54:29;;;;;;;39.22;35.03;;;22.10;59.80;;;;;;4849979;54;21020;-35
2022/10/09 02:59:30;;;;;;;39.53;35.22;;;22.10;59.70;;;;;;4827902;54;20999;-38
2022/10/09 03:04:31;;;;;;;41.30;35.75;;;22.10;59.70;;;;;;4825790;54;21550;-35
2022/10/09 03:09:32;;;;;;;42.05;36.28;;;22.10;59.70;;;;;;4815756;54;20999;-31
2022/10/09 03:14:34;;;;;;;39.78;35.22;;;22.10;59.70;;;;;;4824900;54;21120;-30
2022/10/09 03:19:34;;;;;;;40.05;35.67;;;22.10;59.70;;;;;;4867893;54;21609;-33
2022/10/09 03:24:35;;;;;;;39.75;35.08;;;22.10;59.70;;;;;;4805779;54;20964;-29
2022/10/09 03:29:36;;;;;;;40.17;35.80;;;22.10;59.70;;;;;;4825969;54;20996;-30
2022/10/09 03:34:37;;;;;;;39.28;35.00;;;22.10;59.60;;;;;;4798540;54;21025;-29
2022/10/09 03:39:37;;;;;;;39.38;35.17;;;22.10;59.60;;;;;;4799339;54;21048;-31
2022/10/09 03:44:38;;;;;;;39.45;35.25;;;22.10;59.60;;;;;;4821055;54;21007;-33
2022/10/09 03:49:39;;;;;;;40.45;35.58;;;22.10;59.60;;;;;;4852854;54;21059;-36
2022/10/09 03:54:40;;;;;;;37.92;34.03;;;22.10;59.70;;;;;;4824301;54;21012;-36
2022/10/09 03:59:41;;;;;;;39.33;35.13;;;22.10;59.60;;;;;;4805927;54;21008;-26
2022/10/09 04:04:41;;;;;;;37.60;33.60;;;22.10;59.60;;;;;;4829524;54;21063;-31
2022/10/09 04:09:42;;;;;;;39.60;35.38;;;22.10;59.60;;;;;;4804389;54;21585;-33
2022/10/09 04:14:43;;;;;;;38.92;34.72;;;22.10;59.60;;;;;;4800857;54;21052;-30
2022/10/09 04:19:44;;;;;;;38.05;33.88;;;22.10;59.60;;;;;;4820716;54;21012;-34
2022/10/09 04:24:44;;;;;;;38.55;34.35;;;22.10;59.60;;;;;;4799492;54;21052;-25
2022/10/09 04:29:45;;;;;;;39.70;34.13;;;22.10;59.60;;;;;;4807426;54;20992;-33
2022/10/09 04:34:46;;;;;;;37.83;33.83;;;22.10;59.60;;;;;;4855561;54;21055;-27
2022/10/09 04:39:47;;;;;;;38.53;34.00;;;22.10;59.60;;;;;;4818669;54;21004;-30
2022/10/09 04:44:48;;;;;;;39.35;35.15;;;22.10;59.60;;;;;;4865578;54;21000;-31
2022/10/09 04:49:48;;;;;;;38.30;34.20;;;22.10;59.60;;;;;;4796830;54;21019;-34
2022/10/09 04:54:49;;;;;;;38.65;34.65;;;22.20;59.70;;;;;;4794763;58;21573;-29
2022/10/09 04:59:50;;;;;;;38.05;34.00;;;22.10;59.60;;;;;;4825367;54;21052;-30
2022/10/09 05:04:51;;;;;;;39.28;33.97;;;22.10;59.60;;;;;;4827359;54;21063;-35
2022/10/09 05:09:52;;;;;;;36.55;32.55;;;22.10;59.60;;;;;;4803802;54;21049;-27
2022/10/09 05:14:52;;;;;;;37.08;33.03;;;22.10;59.70;;;;;;4795200;55;21019;-30
2022/10/09 05:19:53;;;;;;;38.17;33.92;;;22.10;59.60;;;;;;4811051;54;21028;-34
2022/10/09 05:24:54;;;;;;;36.28;32.45;;;22.10;59.60;;;;;;4811909;54;21024;-28
2022/10/09 05:29:55;;;;;;;38.88;34.13;;;22.10;59.60;;;;;;4811504;54;21066;-29
2022/10/09 05:34:55;;;;;;;37.00;33.05;;;22.20;59.70;;;;;;4819301;54;22014;-29
2022/10/09 05:39:56;;;;;;;37.88;33.95;;;22.10;59.60;;;;;;4801667;54;21376;-28
2022/10/09 05:44:57;;;;;;;37.83;33.72;;;22.10;59.70;;;;;;4830242;54;21039;-27
2022/10/09 05:49:58;;;;;;;36.05;32.20;;;22.10;59.60;;;;;;4821735;54;20984;-29
2022/10/09 05:55:00;;;;;;;36.95;32.92;;;22.10;59.60;;;;;;4806159;54;21029;-32
2022/10/09 06:00:00;;;;;;;37.67;33.58;;;22.20;59.70;;;;;;4923049;54;21074;-32
2022/10/09 06:05:01;;;;;;;37.50;33.60;;;22.10;59.60;;;;;;4798946;54;21079;-35
2022/10/09 06:10:06;;;;;;;38.28;34.17;;;22.20;59.70;;;;;;4795361;58;21345;-28
2022/10/09 06:15:09;;;;;;;37.33;33.28;;;22.20;59.70;;;;;;4809332;54;21000;-29
2022/10/09 06:20:09;;;;;;;38.70;34.35;;;22.10;59.70;;;;;;4831419;54;21051;-32
2022/10/09 06:25:10;;;;;;;38.17;34.03;;;22.20;59.70;;;;;;4806351;54;21102;-33
2022/10/09 06:30:11;;;;;;;37.28;33.38;;;22.10;59.70;;;;;;4807654;54;21023;-33
2022/10/09 06:35:12;;;;;;;37.80;33.80;;;22.10;59.70;;;;;;4801427;54;21000;-32
2022/10/09 06:40:13;;;;;;;37.60;33.70;;;22.10;59.70;;;;;;4794679;55;21715;-34
2022/10/09 06:45:14;;;;;;;37.70;33.72;;;22.10;59.70;;;;;;4827099;54;21016;-30
2022/10/09 06:50:15;;;;;;;39.25;35.05;;;22.20;59.80;;;;;;4803409;54;21537;-32
2022/10/09 06:55:16;;;;;;;38.30;34.20;;;22.10;59.70;;;;;;4807694;54;21130;-28
2022/10/09 07:00:17;;;;;;;38.65;34.55;;;22.10;59.70;;;;;;4829667;54;21024;-31
2022/10/09 07:05:18;;;;;;;38.08;34.08;;;22.10;59.80;;;;;;4809425;54;21075;-32
2022/10/09 07:10:19;;;;;;;39.75;35.53;;;22.20;59.70;;;;;;4795413;58;21043;-31
2022/10/09 07:15:19;;;;;;;39.85;35.65;;;22.20;59.70;;;;;;4794673;58;21464;-30
2022/10/09 07:20:20;;;;;;;38.67;34.58;;;22.10;59.70;;;;;;4831139;54;21033;-34
2022/10/09 07:25:21;;;;;;;39.92;35.53;;;22.20;59.80;;;;;;4798038;54;21034;-34
2022/10/09 07:30:22;;;;;;;37.55;33.58;;;22.10;59.70;;;;;;4836764;54;21067;-31
2022/10/09 07:35:23;;;;;;;41.47;36.35;;;22.20;59.80;;;;;;4802596;54;21457;-30
2022/10/09 07:40:24;;;;;;;39.67;35.38;;;22.20;59.70;;;;;;4798280;54;22024;-33
2022/10/09 07:45:25;;;;;;;39.38;35.08;;;22.20;59.80;;;;;;4795524;55;21566;-28
2022/10/09 07:50:26;;;;;;;39.40;35.15;;;22.20;59.80;;;;;;4808270;54;21032;-31
2022/10/09 07:55:27;;;;;;;41.00;36.53;;;22.20;59.80;;;;;;4794186;58;21111;-32
2022/10/09 08:00:28;;;;;;;40.83;35.88;;;22.10;59.70;;;;;;4813647;54;21035;-30
2022/10/09 08:05:28;;;;;;;41.08;36.58;;;22.20;59.80;;;;;;4795933;58;21510;-35
2022/10/09 08:10:30;;;;;;;42.13;37.08;;;22.10;59.80;;;;;;4809321;54;20992;-29
2022/10/09 08:15:31;;;;;;;42.33;37.72;;;22.20;59.80;;;;;;4814044;54;21024;-32
2022/10/09 08:20:35;;;;;;;42.38;36.90;;;22.20;59.80;;;;;;4795644;58;21157;-34
2022/10/09 08:25:36;;;;;;;43.30;37.78;;;22.20;59.80;;;;;;4795402;58;21011;-27
2022/10/09 08:30:37;;;;;;;42.53;37.40;;;22.20;59.80;;;;;;4860228;54;21000;-27
2022/10/09 08:35:38;;;;;;;43.92;39.13;;;22.20;59.80;;;;;;4805070;54;21044;-31
2022/10/09 08:40:59;;;;;;;44.47;37.95;;;22.20;59.80;;;;;;4801069;54;21043;-27
2022/10/09 08:46:04;;;;;;;43.35;38.63;;;22.20;59.80;;;;;;4833945;54;21025;-31
2022/10/09 08:51:12;;;;;;;43.58;38.88;;;22.20;59.80;;;;;;4820912;54;21035;-28
2022/10/09 08:56:14;;;;;;;47.92;40.28;;;22.20;59.80;;;;;;4823619;54;21087;-26
2022/10/09 09:03:16;;;;;;;46.00;40.05;;;22.20;59.80;;;;;;4831779;54;21003;-29
2022/10/09 09:12:05;;;;;;;44.85;38.45;;;22.20;59.80;;;;;;4818794;54;21528;-27
2022/10/09 09:17:47;;;;;;;45.72;38.95;;;22.20;59.90;;;;;;4814743;54;21505;-28
2022/10/09 09:22:49;;;;;;;43.45;38.63;;;22.20;59.90;;;;;;4822005;54;21098;-31
2022/10/09 09:27:57;;;;;;;44.65;39.67;;;22.20;59.90;;;;;;4814462;54;21036;-38
2022/10/09 09:34:38;;;;;;;43.42;38.25;;;22.20;59.90;;;;;;4814311;54;21085;-31
2022/10/09 09:39:39;;;;;;;46.33;39.78;;;22.20;59.90;;;;;;4815276;54;21544;-29
2022/10/09 09:45:25;;;;;;;44.42;39.13;;;22.20;59.90;;;;;;4795310;58;20984;-27
2022/10/09 09:50:39;;;;;;;43.83;38.72;;;22.20;59.90;;;;;;4807439;54;20999;-30
2022/10/09 09:55:41;;;;;;;49.08;41.53;;;22.20;59.90;;;;;;4794930;58;21482;-29
2022/10/09 10:00:56;;;;;;;45.28;40.28;;;22.20;59.90;;;;;;4803853;54;20999;-35
2022/10/09 10:05:57;;;;;;;44.50;39.58;;;22.20;60.50;;;;;;4832494;54;20988;-30
2022/10/09 10:11:02;;;;;;;45.35;40.30;;;22.20;59.90;;;;;;4804646;54;20999;-27
2022/10/09 10:16:06;;;;;;;46.08;40.35;;;22.20;59.90;;;;;;4795938;54;21562;-30
2022/10/09 10:21:17;;;;;;;44.80;39.90;;;22.20;59.90;;;;;;4796198;54;21522;-27
2022/10/09 10:26:45;;;;;;;46.45;40.45;;;22.20;59.90;;;;;;4795890;58;21474;-29
2022/10/09 10:32:04;;;;;;;45.35;40.35;;;22.20;59.90;;;;;;4795170;58;21111;-29
2022/10/09 10:39:55;;;;;;;44.63;39.78;;;22.20;59.90;;;;;;4850992;54;21141;-35
2022/10/09 10:45:09;;;;;;;49.05;41.22;;;22.20;59.90;;;;;;4812138;54;21071;-29
2022/10/09 10:50:15;;;;;;;45.10;38.85;;;22.20;59.90;;;;;;4823637;54;21056;-35
2022/10/09 10:56:04;;;;;;;44.25;39.35;;;22.20;59.90;;;;;;4835454;54;21011;-32
2022/10/09 11:01:29;;;;;;;44.63;39.15;;;22.20;59.90;;;;;;4796583;54;21976;-31
2022/10/09 11:08:30;;;;;;;47.28;41.40;;;22.20;59.90;;;;;;4798119;54;22046;-26
2022/10/09 11:13:55;;;;;;;45.88;39.72;;;22.20;59.90;;;;;;4800495;54;21138;-28
2022/10/09 11:21:40;;;;;;;45.33;40.38;;;22.20;59.90;;;;;;4798448;54;21541;-36
2022/10/09 11:27:36;;;;;;;46.13;38.87;;;22.20;59.90;;;;;;4821802;54;20992;-30
2022/10/09 11:34:06;;;;;;;43.20;38.42;;;22.20;59.90;;;;;;4795578;54;21060;-31
2022/10/09 11:39:21;;;;;;;42.42;37.85;;;22.20;59.90;;;;;;4810990;54;21083;-31
2022/10/09 11:48:00;;;;;;;44.75;39.60;;;22.20;59.90;;;;;;4814198;54;21448;-28
2022/10/09 11:53:09;;;;;;;43.85;38.63;;;22.20;60.00;;;;;;4820843;54;21092;-31
2022/10/09 11:58:23;;;;;;;42.08;37.58;;;22.20;59.90;;;;;;4795414;58;21000;-28
2022/10/09 12:03:35;;;;;;;43.58;38.85;;;22.20;60.00;;;;;;4816099;54;21095;-29
2022/10/09 12:08:57;;;;;;;44.13;39.42;;;22.20;60.00;;;;;;4822824;54;21060;-30
2022/10/09 12:14:03;;;;;;;44.70;39.10;;;22.20;59.90;;;;;;4828411;54;21028;-28
2022/10/09 12:20:58;;;;;;;42.70;37.97;;;22.20;59.90;;;;;;4812507;54;21075;-30
2022/10/09 12:26:00;;;;;;;42.05;37.58;;;22.20;60.00;;;;;;4796609;54;21130;-29
2022/10/09 12:31:05;;;;;;;41.33;36.92;;;22.20;59.90;;;;;;4795786;58;21036;-35
2022/10/09 12:36:20;;;;;;;41.10;36.60;;;22.20;59.90;;;;;;4816660;54;21012;-33
2022/10/09 12:41:33;;;;;;;42.33;37.78;;;22.20;59.90;;;;;;4797774;54;21035;-36
2022/10/09 12:46:36;;;;;;;44.30;39.30;;;22.20;59.90;;;;;;4814478;54;20980;-34
2022/10/09 12:51:37;;;;;;;41.65;37.25;;;22.20;59.90;;;;;;4875502;54;21075;-28
2022/10/09 12:56:38;;;;;;;43.83;38.88;;;22.20;59.90;;;;;;4795259;58;21000;-27
2022/10/09 13:01:41;;;;;;;41.05;36.75;;;22.30;60.00;;;;;;4802243;54;21482;-29
2022/10/09 13:06:50;;;;;;;42.90;38.20;;;22.20;59.90;;;;;;4851787;54;21050;-33
2022/10/09 13:12:24;;;;;;;41.60;37.13;;;22.20;59.90;;;;;;4828100;54;21023;-30
2022/10/09 13:17:34;;;;;;;40.58;36.28;;;22.20;59.90;;;;;;4813949;54;21008;-32
2022/10/09 13:22:37;;;;;;;42.05;37.10;;;22.20;59.90;;;;;;4818410;54;20999;-33
2022/10/09 13:27:38;;;;;;;41.33;36.28;;;22.20;59.90;;;;;;4795550;58;21036;-31
2022/10/09 13:32:39;;;;;;;40.78;36.38;;;22.20;59.90;;;;;;4809416;54;21016;-29
2022/10/09 13:37:40;;;;;;;41.75;37.25;;;22.30;59.90;;;;;;4800399;54;21031;-26
2022/10/09 13:42:45;;;;;;;42.53;36.95;;;22.20;59.90;;;;;;4842698;54;21553;-29
2022/10/09 13:47:46;;;;;;;40.78;36.35;;;22.30;59.90;;;;;;4838155;54;21099;-37
2022/10/09 13:52:47;;;;;;;39.88;35.58;;;22.30;59.90;;;;;;4811970;54;21114;-35
2022/10/09 13:57:48;;;;;;;41.42;36.70;;;22.30;60.00;;;;;;4799801;54;21047;-28
2022/10/09 14:02:48;;;;;;;40.17;35.40;;;22.20;59.90;;;;;;4819416;54;21027;-34
2022/10/09 14:07:49;;;;;;;39.88;35.50;;;22.30;59.90;;;;;;4803227;54;21008;-27
2022/10/09 14:12:51;;;;;;;39.13;34.58;;;22.20;59.90;;;;;;4794787;58;21506;-31
2022/10/09 14:17:52;;;;;;;40.47;36.13;;;22.20;59.90;;;;;;4795359;58;21123;-26
2022/10/09 14:22:53;;;;;;;39.22;35.15;;;22.20;59.90;;;;;;4818961;54;21432;-33
2022/10/09 14:27:54;;;;;;;38.80;34.67;;;22.30;59.90;;;;;;4794760;58;21345;-30
2022/10/09 14:32:55;;;;;;;38.08;34.05;;;22.30;60.00;;;;;;4796339;54;21107;-33
2022/10/09 14:37:57;;;;;;;39.85;35.50;;;22.20;59.90;;;;;;4836984;54;21047;-28
2022/10/09 14:42:58;;;;;;;38.85;34.65;;;22.30;59.90;;;;;;4798725;54;21197;-29
2022/10/09 14:47:59;;;;;;;40.08;35.85;;;22.30;59.90;;;;;;4795456;58;21039;-29
2022/10/09 14:53:00;;;;;;;39.78;35.53;;;22.30;60.00;;;;;;4826764;54;21111;-30
2022/10/09 14:58:01;;;;;;;38.58;34.28;;;22.30;59.90;;;;;;4813623;54;22302;-31
2022/10/09 15:03:02;;;;;;;38.70;34.60;;;22.30;60.00;;;;;;4803883;54;21012;-29
2022/10/09 15:08:02;;;;;;;37.58;33.67;;;22.20;59.90;;;;;;4810248;54;20999;-29
2022/10/09 15:13:03;;;;;;;38.33;34.30;;;22.30;59.90;;;;;;4794883;55;21016;-31
2022/10/09 15:18:04;;;;;;;37.90;33.80;;;22.20;59.80;;;;;;4840103;54;21525;-31
2022/10/09 15:23:05;;;;;;;37.10;33.20;;;22.20;59.80;;;;;;4795181;58;21055;-36
2022/10/09 15:28:06;;;;;;;37.45;33.33;;;22.30;59.90;;;;;;4825303;54;21054;-30
2022/10/09 15:33:07;;;;;;;38.05;34.00;;;22.30;59.90;;;;;;4831047;54;21901;-28
2022/10/09 15:38:13;;;;;;;37.00;33.20;;;22.30;59.90;;;;;;4886724;54;21071;-29
2022/10/09 15:43:16;;;;;;;36.83;32.90;;;22.20;59.90;;;;;;4811526;54;21120;-31
2022/10/09 15:48:20;;;;;;;36.42;32.70;;;22.20;59.90;;;;;;4833444;54;21521;-32
2022/10/09 15:53:23;;;;;;;37.60;33.67;;;22.30;59.90;;;;;;4803202;54;21008;-29
2022/10/09 15:58:23;;;;;;;36.15;32.42;;;22.20;59.80;;;;;;4837758;54;21010;-30
2022/10/09 16:03:27;;;;;;;38.97;34.78;;;22.30;59.90;;;;;;4799988;54;21017;-30
2022/10/09 16:08:28;;;;;;;36.15;32.33;;;22.20;59.80;;;;;;4847466;54;21098;-33
2022/10/09 16:13:29;;;;;;;36.85;33.00;;;22.20;59.80;;;;;;4795130;55;21008;-28
2022/10/09 16:18:31;;;;;;;36.75;32.90;;;22.30;59.90;;;;;;4821461;54;21040;-34
2022/10/09 16:23:32;;;;;;;37.08;33.25;;;22.20;59.90;;;;;;4795497;58;21612;-28
2022/10/09 16:28:36;;;;;;;36.95;33.10;;;22.30;59.90;;;;;;4868659;54;21084;-29
2022/10/09 16:33:37;;;;;;;37.35;33.50;;;22.30;59.90;;;;;;4841107;54;21019;-28
2022/10/09 16:38:39;;;;;;;35.80;32.10;;;22.20;59.90;;;;;;4841603;54;21016;-29
2022/10/09 16:43:40;;;;;;;36.65;32.85;;;22.30;59.90;;;;;;4815501;54;20991;-29
2022/10/09 16:48:41;;;;;;;36.60;32.80;;;22.30;59.90;;;;;;4921711;54;21502;-29
2022/10/09 16:53:42;;;;;;;36.25;32.40;;;22.30;59.90;;;;;;4830714;54;21019;-29
2022/10/09 16:58:43;;;;;;;36.63;32.70;;;22.30;59.90;;;;;;4795416;58;21043;-36
2022/10/09 17:03:43;;;;;;;35.17;31.55;;;22.30;59.90;;;;;;4807058;54;21083;-30
2022/10/09 17:08:46;;;;;;;36.17;32.38;;;22.30;59.90;;;;;;4816778;54;21634;-31
2022/10/09 17:13:48;;;;;;;36.63;32.78;;;22.30;59.90;;;;;;4809383;54;21978;-31
2022/10/09 17:18:49;;;;;;;36.10;32.10;;;22.30;59.90;;;;;;4802626;54;21039;-28
2022/10/09 17:23:55;;;;;;;36.85;33.15;;;22.30;59.90;;;;;;4811260;54;21020;-29
2022/10/09 17:28:57;;;;;;;36.42;32.53;;;22.30;59.90;;;;;;4796524;58;20991;-33
2022/10/09 17:34:03;;;;;;;37.30;33.40;;;22.30;59.90;;;;;;4828318;54;21119;-27
2022/10/09 17:39:07;;;;;;;36.38;32.50;;;22.30;59.90;;;;;;4808983;54;21020;-32
2022/10/09 17:44:08;;;;;;;36.30;32.45;;;22.20;59.90;;;;;;4819567;54;21063;-32
2022/10/09 17:49:09;;;;;;;37.10;33.22;;;22.30;60.00;;;;;;4832567;54;21549;-26
2022/10/09 17:54:13;;;;;;;37.03;33.10;;;22.30;60.00;;;;;;4827392;54;21012;-32
2022/10/09 17:59:15;;;;;;;38.33;34.25;;;22.30;60.00;;;;;;4796091;54;21036;-33
2022/10/09 18:04:16;;;;;;;37.42;33.60;;;22.20;59.90;;;;;;4795863;58;21012;-29
2022/10/09 18:09:17;;;;;;;38.70;34.58;;;22.30;60.00;;;;;;4795043;58;21047;-27
2022/10/09 18:14:18;;;;;;;39.03;34.83;;;22.30;60.00;;;;;;4813439;54;21032;-32
2022/10/09 18:19:19;;;;;;;39.15;35.05;;;22.30;60.10;;;;;;4808017;54;21047;-29
2022/10/09 18:24:19;;;;;;;38.55;34.38;;;22.30;60.10;;;;;;4812218;54;21807;-35
2022/10/09 18:29:20;;;;;;;39.75;35.60;;;22.30;60.20;;;;;;4821187;54;21040;-35
2022/10/09 18:34:22;;;;;;;41.08;36.67;;;22.30;60.10;;;;;;4794401;55;21090;-30
2022/10/09 18:39:23;;;;;;;39.47;35.22;;;22.30;60.10;;;;;;4803309;54;21990;-31
2022/10/09 18:44:24;;;;;;;39.60;35.40;;;22.30;60.20;;;;;;4795446;58;21123;-27
2022/10/09 18:49:28;;;;;;;38.35;34.45;;;22.30;60.10;;;;;;4816740;54;21107;-28
2022/10/09 18:54:30;;;;;;;39.95;35.75;;;22.30;60.10;;;;;;4799760;54;21167;-30
2022/10/09 18:59:32;;;;;;;38.70;34.60;;;22.30;60.10;;;;;;4809220;54;21605;-31
2022/10/09 19:04:33;;;;;;;40.08;35.72;;;22.30;60.10;;;;;;4832268;54;21008;-29
2022/10/09 19:09:34;;;;;;;38.22;34.22;;;22.30;60.10;;;;;;4795613;58;21042;-29
2022/10/09 19:14:35;;;;;;;40.75;36.53;;;22.30;60.20;;;;;;4823980;54;21087;-29
2022/10/09 19:19:37;;;;;;;41.20;36.80;;;22.30;60.20;;;;;;4857027;54;21514;-34
2022/10/09 19:24:38;;;;;;;40.38;36.08;;;22.30;60.20;;;;;;4820020;54;21027;-30
2022/10/09 19:29:39;;;;;;;40.22;36.00;;;22.30;60.80;;;;;;4802411;54;21015;-31
2022/10/09 19:34:39;;;;;;;40.97;36.58;;;22.30;60.20;;;;;;4794727;58;21083;-29
2022/10/09 19:39:47;;;;;;;41.53;37.03;;;22.30;60.20;;;;;;4795123;55;21100;-30
2022/10/09 19:44:48;;;;;;;39.20;35.00;;;22.30;60.20;;;;;;4796574;54;21493;-33
2022/10/09 19:49:48;;;;;;;39.97;35.70;;;22.20;60.40;;;;;;4795573;58;21099;-30
2022/10/09 19:54:49;;;;;;;40.12;35.92;;;22.30;60.20;;;;;;4794557;58;21087;-34
2022/10/09 19:59:50;;;;;;;39.28;35.15;;;22.30;60.20;;;;;;4802494;54;21067;-31
2022/10/09 20:04:51;;;;;;;40.78;36.53;;;22.30;60.20;;;;;;4806623;54;21533;-28
2022/10/09 20:09:52;;;;;;;39.45;35.15;;;22.30;60.20;;;;;;4800097;54;21055;-35
2022/10/09 20:14:52;;;;;;;41.30;36.70;;;22.30;60.20;;;;;;4835689;54;21087;-32
2022/10/09 20:19:53;;;;;;;41.63;37.25;;;22.30;60.20;;;;;;4809182;54;21016;-31
2022/10/09 20:24:54;;;;;;;40.42;36.22;;;22.30;60.20;;;;;;4799093;54;22005;-29
2022/10/09 20:29:55;;;;;;;40.47;36.08;;;22.30;60.20;;;;;;4814883;54;21020;-28
2022/10/09 20:34:56;;;;;;;40.95;36.60;;;22.30;60.20;;;;;;4794805;58;20992;-31
2022/10/09 20:39:57;;;;;;;42.90;38.30;;;22.30;60.20;;;;;;4795048;58;21502;-34
2022/10/09 20:44:58;;;;;;;43.70;37.80;;;22.30;60.30;;;;;;4802434;54;21016;-27
2022/10/09 20:49:59;;;;;;;40.45;36.15;;;22.30;60.20;;;;;;4827124;54;20980;-32
2022/10/09 20:55:00;;;;;;;41.97;37.58;;;22.30;60.20;;;;;;4826604;54;21565;-28
2022/10/09 21:00:01;;;;;;;42.03;37.42;;;22.30;60.20;;;;;;4803534;54;21444;-29
2022/10/09 21:05:01;;;;;;;40.47;36.17;;;22.30;60.20;;;;;;4887535;54;20995;-29
2022/10/09 21:10:04;;;;;;;39.95;35.65;;;22.30;60.10;;;;;;4794740;58;21044;-27
2022/10/09 21:15:05;;;;;;;42.33;37.33;;;22.30;60.10;;;;;;4802511;54;21639;-33
2022/10/09 21:20:07;;;;;;;41.90;37.33;;;22.30;60.10;;;;;;4859662;54;20983;-33
2022/10/09 21:25:08;;;;;;;40.83;36.53;;;22.30;60.20;;;;;;4824493;54;20999;-34
2022/10/09 21:30:10;;;;;;;40.92;36.40;;;22.30;60.10;;;;;;4815395;54;21020;-35
2022/10/09 21:35:11;;;;;;;41.00;36.53;;;22.20;60.00;;;;;;4804602;54;21076;-29
2022/10/09 21:40:12;;;;;;;41.22;36.83;;;22.30;60.10;;;;;;4799135;54;21609;-34
2022/10/09 21:45:13;;;;;;;40.12;35.72;;;22.30;60.10;;;;;;4795889;54;21497;-33
2022/10/09 21:50:14;;;;;;;40.67;36.28;;;22.30;60.10;;;;;;4800269;54;21058;-31
2022/10/09 21:55:15;;;;;;;40.22;35.80;;;22.20;60.10;;;;;;4827238;54;21007;-30
2022/10/09 22:00:16;;;;;;;39.38;35.17;;;22.30;60.10;;;;;;4840036;54;20987;-32
2022/10/09 22:05:17;;;;;;;39.65;35.55;;;22.30;60.10;;;;;;4795494;58;21645;-34
2022/10/09 22:10:18;;;;;;;41.40;36.67;;;22.30;60.10;;;;;;4823128;54;21088;-28
2022/10/09 22:15:18;;;;;;;39.25;35.05;;;22.30;60.10;;;;;;4800670;54;21502;-29
2022/10/09 22:20:19;;;;;;;40.22;35.92;;;22.30;60.80;;;;;;4807732;54;21011;-34
2022/10/09 22:25:20;;;;;;;37.47;33.35;;;22.30;60.00;;;;;;4799437;54;21055;-27
2022/10/09 22:30:21;;;;;;;38.97;34.78;;;22.30;60.10;;;;;;4795996;58;21024;-30
2022/10/09 22:35:22;;;;;;;37.90;33.80;;;22.20;60.00;;;;;;4795016;58;21016;-37
2022/10/09 22:40:23;;;;;;;39.65;35.38;;;22.30;60.10;;;;;;4798209;54;21047;-34
2022/10/09 22:45:24;;;;;;;39.55;35.25;;;22.30;60.10;;;;;;4816874;54;21055;-33
2022/10/09 22:50:24;;;;;;;39.80;35.47;;;22.30;60.80;;;;;;4824357;54;22037;-32
2022/10/09 22:55:25;;;;;;;38.97;34.78;;;22.30;60.10;;;;;;4830019;54;21051;-29
2022/10/09 23:00:26;;;;;;;39.55;35.25;;;22.30;60.10;;;;;;4794929;58;21012;-27
2022/10/09 23:05:30;;;;;;;38.80;34.70;;;22.20;60.00;;;;;;4805942;54;21068;-36
2022/10/09 23:10:30;;;;;;;36.83;33.03;;;22.30;60.00;;;;;;4800792;54;21538;-32
2022/10/09 23:15:35;;;;;;;37.47;33.40;;;22.30;60.00;;;;;;4837568;54;21050;-36
2022/10/09 23:20:36;;;;;;;40.12;35.13;;;22.30;60.00;;;;;;4795692;54;21095;-35
2022/10/09 23:25:41;;;;;;;38.25;34.22;;;22.30;60.00;;;;;;4795297;58;21059;-33
2022/10/09 23:30:41;;;;;;;39.00;34.70;;;22.30;60.00;;;;;;4817062;54;21083;-29
2022/10/09 23:35:43;;;;;;;37.67;33.58;;;22.20;59.90;;;;;;4809632;54;21047;-31
2022/10/09 23:40:57;;;;;;;37.63;33.60;;;22.30;59.90;;;;;;4843137;54;21878;-29
2022/10/09 23:46:00;;;;;;;37.78;33.50;;;22.30;59.90;;;;;;4807082;54;20988;-35
2022/10/09 23:51:01;;;;;;;36.63;32.72;;;22.30;59.90;;;;;;4801679;54;21170;-27
2022/10/09 23:56:33;;;;;;;36.53;32.55;;;22.30;59.90;;;;;;4846865;54;21553;-28
